sensor_id;sensor_type;location;lat;lon;timestamp;pressure;altitude;pressure_sealevel;temperature;humidity
35694;BME280;21812;55.536;37.664;2024-03-02T00:00:08;101018.13;;;10.14;47.34
35694;BME280;21812;55.536;37.664;2024-03-02T00:02:43;101034.03;;;10.24;47.59
35694;BME280;21812;55.536;37.664;2024-03-02T00:05:20;100947.75;;;9.71;47.91
35694;BME280;21812;55.536;37.664;2024-03-02T00:07:55;100952.31;;;9.61;48.63
35694;BME280;21812;55.536;37.664;2024-03-02T00:10:27;101021.88;;;10.30;48.01
35694;BME280;21812;55.536;37.664;2024-03-02T00:13:02;101023.34;;;10.68;46.67
35694;BME280;21812;55.536;37.664;2024-03-02T00:18:14;101023.66;;;11.00;47.73
35694;BME280;21812;55.536;37.664;2024-03-02T00:20:40;101020.94;;;10.91;46.30
35694;BME280;21812;55.536;37.664;2024-03-02T00:23:08;100978.81;;;10.25;46.39
35694;BME280;21812;55.536;37.664;2024-03-02T00:25:42;100987.47;;;10.18;47.39
35694;BME280;21812;55.536;37.664;2024-03-02T00:28:20;101021.06;;;10.47;46.89
35694;BME280;21812;55.536;37.664;2024-03-02T00:30:55;101017.41;;;10.56;46.94
35694;BME280;21812;55.536;37.664;2024-03-02T00:33:21;101020.88;;;10.49;46.95
35694;BME280;21812;55.536;37.664;2024-03-02T00:35:48;101034.03;;;10.42;47.66
35694;BME280;21812;55.536;37.664;2024-03-02T00:38:15;101030.31;;;10.35;47.22
35694;BME280;21812;55.536;37.664;2024-03-02T00:40:44;101018.38;;;10.47;47.96
35694;BME280;21812;55.536;37.664;2024-03-02T00:43:44;101017.91;;;10.86;47.14
35694;BME280;21812;55.536;37.664;2024-03-02T00:46:20;101014.38;;;10.78;47.28
35694;BME280;21812;55.536;37.664;2024-03-02T00:48:59;101019.41;;;10.89;46.23
35694;BME280;21812;55.536;37.664;2024-03-02T00:51:30;101003.63;;;10.69;46.85
35694;BME280;21812;55.536;37.664;2024-03-02T00:53:59;101031.06;;;10.45;46.74
35694;BME280;21812;55.536;37.664;2024-03-02T00:56:25;101026.38;;;10.03;47.67
35694;BME280;21812;55.536;37.664;2024-03-02T00:58:52;101036.53;;;10.00;48.39
35694;BME280;21812;55.536;37.664;2024-03-02T01:01:18;101033.53;;;10.21;48.35
35694;BME280;21812;55.536;37.664;2024-03-02T01:03:45;101000.59;;;10.12;48.35
35694;BME280;21812;55.536;37.664;2024-03-02T01:06:11;101023.00;;;10.01;49.90
35694;BME280;21812;55.536;37.664;2024-03-02T01:08:37;101030.81;;;9.76;48.33
35694;BME280;21812;55.536;37.664;2024-03-02T01:11:04;101034.00;;;9.44;49.20
35694;BME280;21812;55.536;37.664;2024-03-02T01:13:31;101045.47;;;9.27;49.19
35694;BME280;21812;55.536;37.664;2024-03-02T01:15:57;101039.28;;;9.72;48.86
35694;BME280;21812;55.536;37.664;2024-03-02T01:18:23;101039.56;;;10.05;48.67
35694;BME280;21812;55.536;37.664;2024-03-02T01:20:49;101050.91;;;10.25;47.58
35694;BME280;21812;55.536;37.664;2024-03-02T01:23:20;101040.63;;;10.56;47.11
35694;BME280;21812;55.536;37.664;2024-03-02T01:25:46;101028.63;;;10.60;46.67
35694;BME280;21812;55.536;37.664;2024-03-02T01:28:13;101030.63;;;10.58;47.00
35694;BME280;21812;55.536;37.664;2024-03-02T01:30:39;101043.28;;;10.56;45.70
35694;BME280;21812;55.536;37.664;2024-03-02T01:33:05;101042.34;;;10.39;46.59
35694;BME280;21812;55.536;37.664;2024-03-02T01:35:31;101043.56;;;10.27;46.78
35694;BME280;21812;55.536;37.664;2024-03-02T01:37:57;101035.97;;;10.14;48.13
35694;BME280;21812;55.536;37.664;2024-03-02T01:40:23;101043.16;;;9.95;47.01
35694;BME280;21812;55.536;37.664;2024-03-02T01:42:52;101047.59;;;9.87;47.94
35694;BME280;21812;55.536;37.664;2024-03-02T01:45:19;101039.78;;;10.11;47.48
35694;BME280;21812;55.536;37.664;2024-03-02T01:47:45;101033.31;;;10.32;47.26
35694;BME280;21812;55.536;37.664;2024-03-02T01:50:11;101029.69;;;10.41;46.78
35694;BME280;21812;55.536;37.664;2024-03-02T01:52:37;101037.69;;;10.41;46.26
35694;BME280;21812;55.536;37.664;2024-03-02T01:55:03;101033.59;;;10.29;47.00
35694;BME280;21812;55.536;37.664;2024-03-02T01:57:29;101031.75;;;10.29;46.49
35694;BME280;21812;55.536;37.664;2024-03-02T01:59:55;101032.28;;;10.33;46.79
35694;BME280;21812;55.536;37.664;2024-03-02T02:02:21;101045.66;;;10.15;47.17
35694;BME280;21812;55.536;37.664;2024-03-02T02:04:47;101040.56;;;9.86;48.16
35694;BME280;21812;55.536;37.664;2024-03-02T02:07:13;101051.22;;;9.50;47.98
35694;BME280;21812;55.536;37.664;2024-03-02T02:09:43;101052.78;;;9.25;49.29
35694;BME280;21812;55.536;37.664;2024-03-02T02:12:11;101057.06;;;9.35;49.54
35694;BME280;21812;55.536;37.664;2024-03-02T02:14:37;101047.56;;;9.51;49.35
35694;BME280;21812;55.536;37.664;2024-03-02T02:17:05;101046.56;;;9.52;48.85
35694;BME280;21812;55.536;37.664;2024-03-02T02:19:31;101045.22;;;9.66;48.57
35694;BME280;21812;55.536;37.664;2024-03-02T02:21:57;101032.56;;;9.86;48.08
35694;BME280;21812;55.536;37.664;2024-03-02T02:24:22;101049.84;;;10.17;47.84
35694;BME280;21812;55.536;37.664;2024-03-02T02:26:48;101042.00;;;10.34;46.45
35694;BME280;21812;55.536;37.664;2024-03-02T02:29:14;101045.09;;;10.47;46.55
35694;BME280;21812;55.536;37.664;2024-03-02T02:31:40;101053.78;;;10.49;46.52
35694;BME280;21812;55.536;37.664;2024-03-02T02:34:07;101048.84;;;10.63;46.53
35694;BME280;21812;55.536;37.664;2024-03-02T02:36:37;101005.63;;;10.15;47.06
35694;BME280;21812;55.536;37.664;2024-03-02T02:39:04;101052.47;;;10.09;47.37
35694;BME280;21812;55.536;37.664;2024-03-02T02:41:32;101042.09;;;9.88;47.80
35694;BME280;21812;55.536;37.664;2024-03-02T02:43:58;101053.53;;;9.98;47.49
35694;BME280;21812;55.536;37.664;2024-03-02T02:46:23;101049.69;;;10.01;47.16
35694;BME280;21812;55.536;37.664;2024-03-02T02:48:49;101051.63;;;9.91;47.25
35694;BME280;21812;55.536;37.664;2024-03-02T02:51:17;101060.47;;;9.91;47.32
35694;BME280;21812;55.536;37.664;2024-03-02T02:53:43;101053.03;;;10.21;47.46
35694;BME280;21812;55.536;37.664;2024-03-02T02:56:09;101051.00;;;10.33;46.30
35694;BME280;21812;55.536;37.664;2024-03-02T02:58:35;101060.09;;;10.48;46.54
35694;BME280;21812;55.536;37.664;2024-03-02T03:01:01;101048.59;;;10.30;46.48
35694;BME280;21812;55.536;37.664;2024-03-02T03:03:27;101050.94;;;9.53;47.88
35694;BME280;21812;55.536;37.664;2024-03-02T03:05:52;101047.75;;;9.22;49.45
35694;BME280;21812;55.536;37.664;2024-03-02T03:08:18;101061.31;;;9.92;51.66
35694;BME280;21812;55.536;37.664;2024-03-02T03:10:44;101061.09;;;9.67;48.22
35694;BME280;21812;55.536;37.664;2024-03-02T03:13:10;101031.72;;;9.04;48.30
35694;BME280;21812;55.536;37.664;2024-03-02T03:15:36;101070.75;;;9.23;49.56
35694;BME280;21812;55.536;37.664;2024-03-02T03:18:04;101060.41;;;9.10;48.51
35694;BME280;21812;55.536;37.664;2024-03-02T03:20:31;101058.69;;;9.46;48.10
35694;BME280;21812;55.536;37.664;2024-03-02T03:22:57;101061.06;;;9.85;47.56
35694;BME280;21812;55.536;37.664;2024-03-02T03:25:23;101055.09;;;10.27;47.03
35694;BME280;21812;55.536;37.664;2024-03-02T03:27:49;101047.19;;;10.70;46.85
35694;BME280;21812;55.536;37.664;2024-03-02T03:30:14;101050.22;;;10.67;45.07
35694;BME280;21812;55.536;37.664;2024-03-02T03:32:40;101046.75;;;9.68;46.35
35694;BME280;21812;55.536;37.664;2024-03-02T03:35:06;101061.13;;;9.39;49.13
35694;BME280;21812;55.536;37.664;2024-03-02T03:37:32;101067.41;;;9.66;48.17
35694;BME280;21812;55.536;37.664;2024-03-02T03:39:59;101046.75;;;9.68;47.75
35694;BME280;21812;55.536;37.664;2024-03-02T03:42:25;101045.22;;;9.84;47.44
35694;BME280;21812;55.536;37.664;2024-03-02T03:44:51;101051.16;;;9.95;46.70
35694;BME280;21812;55.536;37.664;2024-03-02T03:47:17;101057.00;;;9.63;47.17
35694;BME280;21812;55.536;37.664;2024-03-02T03:49:43;101046.72;;;9.05;48.96
35694;BME280;21812;55.536;37.664;2024-03-02T03:52:08;101056.75;;;8.83;49.18
35694;BME280;21812;55.536;37.664;2024-03-02T03:54:34;101044.97;;;9.13;50.38
35694;BME280;21812;55.536;37.664;2024-03-02T03:57:00;101033.47;;;9.58;48.98
35694;BME280;21812;55.536;37.664;2024-03-02T03:59:25;101043.69;;;10.17;47.38
35694;BME280;21812;55.536;37.664;2024-03-02T04:01:51;101044.03;;;10.40;46.07
35694;BME280;21812;55.536;37.664;2024-03-02T04:04:17;101037.91;;;10.30;45.92
35694;BME280;21812;55.536;37.664;2024-03-02T04:06:43;101013.66;;;9.61;46.41
35694;BME280;21812;55.536;37.664;2024-03-02T04:09:08;101028.19;;;9.31;47.66
35694;BME280;21812;55.536;37.664;2024-03-02T04:11:34;101046.31;;;9.27;48.78
35694;BME280;21812;55.536;37.664;2024-03-02T04:14:00;101042.69;;;9.46;47.96
35694;BME280;21812;55.536;37.664;2024-03-02T04:16:26;101050.41;;;9.67;47.88
35694;BME280;21812;55.536;37.664;2024-03-02T04:18:52;101048.78;;;9.74;47.12
35694;BME280;21812;55.536;37.664;2024-03-02T04:21:17;101043.53;;;9.65;47.71
35694;BME280;21812;55.536;37.664;2024-03-02T04:23:43;101054.25;;;9.37;48.04
35694;BME280;21812;55.536;37.664;2024-03-02T04:26:09;101030.34;;;8.99;49.31
35694;BME280;21812;55.536;37.664;2024-03-02T04:28:34;101054.00;;;9.30;49.14
35694;BME280;21812;55.536;37.664;2024-03-02T04:31:00;101053.03;;;9.31;48.90
35694;BME280;21812;55.536;37.664;2024-03-02T04:33:26;101057.16;;;9.44;48.09
35694;BME280;21812;55.536;37.664;2024-03-02T04:35:52;101053.84;;;9.77;47.44
35694;BME280;21812;55.536;37.664;2024-03-02T04:38:17;101052.75;;;10.06;46.88
35694;BME280;21812;55.536;37.664;2024-03-02T04:40:43;101042.75;;;10.26;46.31
35694;BME280;21812;55.536;37.664;2024-03-02T04:43:09;101050.91;;;10.25;46.41
35694;BME280;21812;55.536;37.664;2024-03-02T04:45:38;101046.44;;;10.07;46.34
35694;BME280;21812;55.536;37.664;2024-03-02T04:48:04;101061.31;;;9.74;47.27
35694;BME280;21812;55.536;37.664;2024-03-02T04:50:29;101056.06;;;9.36;47.92
35694;BME280;21812;55.536;37.664;2024-03-02T04:52:55;101053.84;;;9.14;48.37
35694;BME280;21812;55.536;37.664;2024-03-02T04:55:21;101056.09;;;9.09;49.54
35694;BME280;21812;55.536;37.664;2024-03-02T04:57:52;101057.94;;;9.08;49.73
35694;BME280;21812;55.536;37.664;2024-03-02T05:00:20;101054.53;;;9.16;48.61
35694;BME280;21812;55.536;37.664;2024-03-02T05:02:46;101054.53;;;9.16;49.25
35694;BME280;21812;55.536;37.664;2024-03-02T05:05:12;101055.91;;;9.20;49.12
35694;BME280;21812;55.536;37.664;2024-03-02T05:07:38;101060.03;;;9.32;49.00
35694;BME280;21812;55.536;37.664;2024-03-02T05:10:04;101068.34;;;9.47;48.80
35694;BME280;21812;55.536;37.664;2024-03-02T05:12:29;101068.13;;;9.41;48.42
35694;BME280;21812;55.536;37.664;2024-03-02T05:15:01;101059.69;;;9.45;48.93
35694;BME280;21812;55.536;37.664;2024-03-02T05:17:29;101061.41;;;9.36;49.29
35694;BME280;21812;55.536;37.664;2024-03-02T05:19:55;101029.84;;;9.14;50.88
35694;BME280;21812;55.536;37.664;2024-03-02T05:22:21;101047.31;;;9.26;49.09
35694;BME280;21812;55.536;37.664;2024-03-02T05:24:47;101045.19;;;9.30;48.93
35694;BME280;21812;55.536;37.664;2024-03-02T05:27:12;101063.75;;;9.67;48.35
35694;BME280;21812;55.536;37.664;2024-03-02T05:29:38;101066.56;;;10.02;49.96
35694;BME280;21812;55.536;37.664;2024-03-02T05:32:04;101066.09;;;9.70;47.96
35694;BME280;21812;55.536;37.664;2024-03-02T05:34:29;101064.19;;;9.63;47.56
35694;BME280;21812;55.536;37.664;2024-03-02T05:36:56;101052.97;;;9.41;48.57
35694;BME280;21812;55.536;37.664;2024-03-02T05:39:23;101058.41;;;9.67;48.35
35694;BME280;21812;55.536;37.664;2024-03-02T05:41:49;101056.19;;;9.98;48.85
35694;BME280;21812;55.536;37.664;2024-03-02T05:44:14;101038.50;;;9.97;47.01
35694;BME280;21812;55.536;37.664;2024-03-02T05:46:41;101051.75;;;9.35;47.50
35694;BME280;21812;55.536;37.664;2024-03-02T05:49:08;101027.63;;;9.09;49.50
35694;BME280;21812;55.536;37.664;2024-03-02T05:51:35;101059.00;;;9.61;49.42
35694;BME280;21812;55.536;37.664;2024-03-02T05:54:01;101047.81;;;9.93;49.76
35694;BME280;21812;55.536;37.664;2024-03-02T05:56:27;101065.28;;;10.06;47.99
35694;BME280;21812;55.536;37.664;2024-03-02T05:58:53;101065.84;;;10.17;47.70
35694;BME280;21812;55.536;37.664;2024-03-02T06:01:37;101034.13;;;10.14;47.17
35694;BME280;21812;55.536;37.664;2024-03-02T06:04:03;101057.78;;;10.09;46.83
35694;BME280;21812;55.536;37.664;2024-03-02T06:06:28;101060.34;;;10.37;48.89
35694;BME280;21812;55.536;37.664;2024-03-02T06:08:54;101064.97;;;10.79;49.55
35694;BME280;21812;55.536;37.664;2024-03-02T06:11:20;101058.78;;;10.79;45.64
35694;BME280;21812;55.536;37.664;2024-03-02T06:13:46;101063.53;;;11.27;44.91
35694;BME280;21812;55.536;37.664;2024-03-02T06:16:12;101062.06;;;10.99;45.26
35694;BME280;21812;55.536;37.664;2024-03-02T06:18:37;101054.09;;;10.72;45.18
35694;BME280;21812;55.536;37.664;2024-03-02T06:21:03;101029.22;;;10.28;51.75
35694;BME280;21812;55.536;37.664;2024-03-02T06:23:29;101061.88;;;10.22;48.91
35694;BME280;21812;55.536;37.664;2024-03-02T06:25:55;101069.69;;;9.97;47.25
35694;BME280;21812;55.536;37.664;2024-03-02T06:28:20;101052.84;;;9.61;47.37
35694;BME280;21812;55.536;37.664;2024-03-02T06:30:46;101070.66;;;9.60;49.72
35694;BME280;21812;55.536;37.664;2024-03-02T06:33:12;101043.25;;;9.22;50.20
35694;BME280;21812;55.536;37.664;2024-03-02T06:35:38;101073.91;;;9.36;48.10
35694;BME280;21812;55.536;37.664;2024-03-02T06:38:04;101057.06;;;9.08;49.60
35694;BME280;21812;55.536;37.664;2024-03-02T06:40:30;101063.97;;;9.28;56.06
35694;BME280;21812;55.536;37.664;2024-03-02T06:42:56;101053.72;;;10.23;60.42
35694;BME280;21812;55.536;37.664;2024-03-02T06:45:21;101050.63;;;10.80;53.77
35694;BME280;21812;55.536;37.664;2024-03-02T06:47:47;101066.94;;;10.25;47.23
35694;BME280;21812;55.536;37.664;2024-03-02T06:50:13;101078.47;;;9.44;49.80
35694;BME280;21812;55.536;37.664;2024-03-02T06:52:38;101056.44;;;9.69;54.33
35694;BME280;21812;55.536;37.664;2024-03-02T06:55:04;101062.69;;;10.32;53.43
35694;BME280;21812;55.536;37.664;2024-03-02T06:57:31;101071.06;;;10.63;51.29
35694;BME280;21812;55.536;37.664;2024-03-02T06:59:56;101060.88;;;10.93;50.41
35694;BME280;21812;55.536;37.664;2024-03-02T07:02:24;101066.53;;;11.32;52.20
35694;BME280;21812;55.536;37.664;2024-03-02T07:04:55;101056.03;;;10.96;45.10
35694;BME280;21812;55.536;37.664;2024-03-02T07:07:21;101067.22;;;10.22;46.41
35694;BME280;21812;55.536;37.664;2024-03-02T07:09:47;101069.38;;;9.64;49.03
35694;BME280;21812;55.536;37.664;2024-03-02T07:12:13;101054.38;;;9.81;60.18
35694;BME280;21812;55.536;37.664;2024-03-02T07:14:40;101058.59;;;10.72;63.61
35694;BME280;21812;55.536;37.664;2024-03-02T07:17:24;101053.53;;;10.95;54.76
35694;BME280;21812;55.536;37.664;2024-03-02T07:19:50;101054.50;;;11.28;50.70
35694;BME280;21812;55.536;37.664;2024-03-02T07:22:16;101056.34;;;11.36;56.57
35694;BME280;21812;55.536;37.664;2024-03-02T07:24:43;101059.84;;;11.28;57.80
35694;BME280;21812;55.536;37.664;2024-03-02T07:27:12;101059.53;;;11.31;49.01
35694;BME280;21812;55.536;37.664;2024-03-02T07:29:39;101048.53;;;11.59;61.09
35694;BME280;21812;55.536;37.664;2024-03-02T07:32:06;101058.00;;;11.96;59.95
35694;BME280;21812;55.536;37.664;2024-03-02T07:34:33;101060.63;;;11.71;51.62
35694;BME280;21812;55.536;37.664;2024-03-02T07:36:59;101064.28;;;11.54;47.52
35694;BME280;21812;55.536;37.664;2024-03-02T07:39:25;101068.19;;;11.25;46.43
35694;BME280;21812;55.536;37.664;2024-03-02T07:41:51;101054.84;;;11.25;51.09
35694;BME280;21812;55.536;37.664;2024-03-02T07:44:16;101063.53;;;11.95;56.24
35694;BME280;21812;55.536;37.664;2024-03-02T07:46:46;101054.16;;;12.23;50.29
35694;BME280;21812;55.536;37.664;2024-03-02T07:49:13;101052.66;;;11.96;44.28
35694;BME280;21812;55.536;37.664;2024-03-02T07:51:39;101041.22;;;11.86;54.89
35694;BME280;21812;55.536;37.664;2024-03-02T07:54:05;101054.19;;;11.31;46.46
35694;BME280;21812;55.536;37.664;2024-03-02T07:56:31;101053.13;;;10.82;48.68
35694;BME280;21812;55.536;37.664;2024-03-02T07:58:57;101045.13;;;10.82;49.17
35694;BME280;21812;55.536;37.664;2024-03-02T08:01:27;101037.09;;;11.24;50.53
35694;BME280;21812;55.536;37.664;2024-03-02T08:03:55;101043.00;;;10.93;46.25
35694;BME280;21812;55.536;37.664;2024-03-02T08:06:22;101066.16;;;10.14;46.01
35694;BME280;21812;55.536;37.664;2024-03-02T08:08:48;101050.84;;;9.17;48.01
35694;BME280;21812;55.536;37.664;2024-03-02T08:11:14;101044.78;;;8.59;49.48
35694;BME280;21812;55.536;37.664;2024-03-02T08:13:39;101048.22;;;7.93;50.76
35694;BME280;21812;55.536;37.664;2024-03-02T08:16:05;101025.78;;;7.37;51.72
35694;BME280;21812;55.536;37.664;2024-03-02T08:18:34;101059.91;;;7.32;52.98
35694;BME280;21812;55.536;37.664;2024-03-02T08:21:00;101065.41;;;7.10;53.35
35694;BME280;21812;55.536;37.664;2024-03-02T08:23:26;101047.63;;;7.00;53.94
35694;BME280;21812;55.536;37.664;2024-03-02T08:25:51;101029.44;;;6.86;54.53
35694;BME280;21812;55.536;37.664;2024-03-02T08:28:17;101059.41;;;7.08;54.45
35694;BME280;21812;55.536;37.664;2024-03-02T08:30:43;101059.25;;;6.99;53.84
35694;BME280;21812;55.536;37.664;2024-03-02T08:33:09;101062.16;;;6.96;54.23
35694;BME280;21812;55.536;37.664;2024-03-02T08:35:34;101030.31;;;6.65;54.20
35694;BME280;21812;55.536;37.664;2024-03-02T08:38:03;101063.19;;;6.74;54.33
35694;BME280;21812;55.536;37.664;2024-03-02T08:40:30;101056.81;;;6.56;54.64
35694;BME280;21812;55.536;37.664;2024-03-02T08:42:56;101064.19;;;6.52;55.16
35694;BME280;21812;55.536;37.664;2024-03-02T08:45:21;101071.97;;;6.44;55.49
35694;BME280;21812;55.536;37.664;2024-03-02T08:47:48;101042.31;;;6.18;55.62
35694;BME280;21812;55.536;37.664;2024-03-02T08:50:14;101061.25;;;6.24;55.55
35694;BME280;21812;55.536;37.664;2024-03-02T08:52:39;101067.38;;;6.25;55.61
35694;BME280;21812;55.536;37.664;2024-03-02T08:55:06;101062.91;;;6.25;56.03
35694;BME280;21812;55.536;37.664;2024-03-02T08:57:33;101059.00;;;6.30;55.59
35694;BME280;21812;55.536;37.664;2024-03-02T08:59:59;101070.56;;;6.40;55.31
35694;BME280;21812;55.536;37.664;2024-03-02T09:02:25;101059.22;;;6.38;55.61
35694;BME280;21812;55.536;37.664;2024-03-02T09:04:51;101058.88;;;6.52;55.82
35694;BME280;21812;55.536;37.664;2024-03-02T09:07:18;101058.97;;;6.72;55.93
35694;BME280;21812;55.536;37.664;2024-03-02T09:09:43;101056.69;;;6.88;55.20
35694;BME280;21812;55.536;37.664;2024-03-02T09:12:09;101051.28;;;6.99;54.59
35694;BME280;21812;55.536;37.664;2024-03-02T09:14:36;101059.34;;;6.88;54.39
35694;BME280;21812;55.536;37.664;2024-03-02T09:17:03;101057.94;;;6.84;54.20
35694;BME280;21812;55.536;37.664;2024-03-02T09:19:29;101051.78;;;6.83;54.04
35694;BME280;21812;55.536;37.664;2024-03-02T09:21:55;101040.59;;;6.80;53.91
35694;BME280;21812;55.536;37.664;2024-03-02T09:24:22;101041.34;;;6.61;53.57
35694;BME280;21812;55.536;37.664;2024-03-02T09:26:47;101048.72;;;6.57;54.24
35694;BME280;21812;55.536;37.664;2024-03-02T09:29:13;101051.63;;;6.54;54.31
35694;BME280;21812;55.536;37.664;2024-03-02T09:31:43;101051.09;;;6.60;54.96
35694;BME280;21812;55.536;37.664;2024-03-02T09:34:08;101045.69;;;6.72;54.86
35694;BME280;21812;55.536;37.664;2024-03-02T09:36:34;101032.47;;;6.81;54.13
35694;BME280;21812;55.536;37.664;2024-03-02T09:39:00;101035.06;;;7.02;54.05
35694;BME280;21812;55.536;37.664;2024-03-02T09:41:26;101013.25;;;6.99;53.64
35694;BME280;21812;55.536;37.664;2024-03-02T09:43:52;101040.13;;;7.15;53.35
35694;BME280;21812;55.536;37.664;2024-03-02T09:46:19;100954.72;;;6.60;52.94
35694;BME280;21812;55.536;37.664;2024-03-02T09:48:45;101033.13;;;7.04;52.97
35694;BME280;21812;55.536;37.664;2024-03-02T09:51:11;101043.75;;;7.04;52.96
35694;BME280;21812;55.536;37.664;2024-03-02T09:53:37;101029.22;;;7.09;53.30
35694;BME280;21812;55.536;37.664;2024-03-02T09:56:03;101030.63;;;7.13;52.94
35694;BME280;21812;55.536;37.664;2024-03-02T09:58:30;101039.88;;;7.18;52.71
35694;BME280;21812;55.536;37.664;2024-03-02T10:00:56;101032.50;;;7.32;52.43
35694;BME280;21812;55.536;37.664;2024-03-02T10:03:25;101041.75;;;7.47;52.96
35694;BME280;21812;55.536;37.664;2024-03-02T10:05:52;101028.91;;;7.62;52.80
35694;BME280;21812;55.536;37.664;2024-03-02T10:08:18;101016.75;;;7.69;51.77
35694;BME280;21812;55.536;37.664;2024-03-02T10:10:43;101017.84;;;7.67;52.08
35694;BME280;21812;55.536;37.664;2024-03-02T10:13:11;100988.16;;;7.52;52.52
35694;BME280;21812;55.536;37.664;2024-03-02T10:15:38;101024.72;;;7.89;52.30
35694;BME280;21812;55.536;37.664;2024-03-02T10:18:09;101026.66;;;8.06;52.31
35694;BME280;21812;55.536;37.664;2024-03-02T10:20:39;101037.88;;;8.00;51.01
35694;BME280;21812;55.536;37.664;2024-03-02T10:23:15;101013.31;;;8.26;51.74
35694;BME280;21812;55.536;37.664;2024-03-02T10:25:42;101030.06;;;8.65;50.94
35694;BME280;21812;55.536;37.664;2024-03-02T10:28:08;101027.03;;;8.88;50.00
35694;BME280;21812;55.536;37.664;2024-03-02T10:30:34;101021.44;;;9.09;49.45
35694;BME280;21812;55.536;37.664;2024-03-02T10:33:05;100958.84;;;8.95;49.44
35694;BME280;21812;55.536;37.664;2024-03-02T10:35:32;100990.28;;;9.37;47.97
35694;BME280;21812;55.536;37.664;2024-03-02T10:38:03;100981.97;;;9.40;47.50
35694;BME280;21812;55.536;37.664;2024-03-02T10:40:29;101020.03;;;10.48;47.68
35694;BME280;21812;55.536;37.664;2024-03-02T10:42:55;101017.63;;;10.98;45.23
35694;BME280;21812;55.536;37.664;2024-03-02T10:45:22;100951.25;;;10.76;45.49
35694;BME280;21812;55.536;37.664;2024-03-02T10:47:49;101027.34;;;11.07;44.85
35694;BME280;21812;55.536;37.664;2024-03-02T10:50:15;101015.19;;;11.21;44.26
35694;BME280;21812;55.536;37.664;2024-03-02T10:52:41;101021.94;;;11.33;43.84
35694;BME280;21812;55.536;37.664;2024-03-02T10:55:09;101032.00;;;11.80;44.56
35694;BME280;21812;55.536;37.664;2024-03-02T10:57:45;100938.03;;;11.91;42.43
35694;BME280;21812;55.536;37.664;2024-03-02T11:00:15;101023.97;;;12.54;41.01
35694;BME280;21812;55.536;37.664;2024-03-02T11:02:47;100980.91;;;12.64;41.53
35694;BME280;21812;55.536;37.664;2024-03-02T11:05:23;100956.81;;;12.95;40.25
35694;BME280;21812;55.536;37.664;2024-03-02T11:07:55;101017.00;;;13.55;39.02
35694;BME280;21812;55.536;37.664;2024-03-02T11:10:22;101009.50;;;13.51;38.60
35694;BME280;21812;55.536;37.664;2024-03-02T11:12:54;101020.97;;;13.67;38.34
35694;BME280;21812;55.536;37.664;2024-03-02T11:15:24;101014.16;;;14.18;37.38
35694;BME280;21812;55.536;37.664;2024-03-02T11:17:52;101010.25;;;14.43;36.56
35694;BME280;21812;55.536;37.664;2024-03-02T11:20:19;101011.50;;;15.58;35.27
35694;BME280;21812;55.536;37.664;2024-03-02T11:22:45;100972.19;;;15.64;34.54
35694;BME280;21812;55.536;37.664;2024-03-02T11:25:25;101003.41;;;15.58;34.50
35694;BME280;21812;55.536;37.664;2024-03-02T11:33:01;100993.06;;;16.61;33.07
35694;BME280;21812;55.536;37.664;2024-03-02T11:35:44;100991.22;;;16.69;32.38
35694;BME280;21812;55.536;37.664;2024-03-02T11:38:14;100991.00;;;17.05;31.17
35694;BME280;21812;55.536;37.664;2024-03-02T11:40:40;100992.06;;;17.04;31.52
35694;BME280;21812;55.536;37.664;2024-03-02T11:43:06;100983.25;;;16.54;32.60
35694;BME280;21812;55.536;37.664;2024-03-02T11:45:33;100989.06;;;15.73;33.18
35694;BME280;21812;55.536;37.664;2024-03-02T11:47:59;100988.25;;;15.14;34.91
35694;BME280;21812;55.536;37.664;2024-03-02T11:50:36;100986.72;;;14.75;34.97
35694;BME280;21812;55.536;37.664;2024-03-02T11:53:06;100997.66;;;14.59;35.54
35694;BME280;21812;55.536;37.664;2024-03-02T11:55:37;100983.03;;;15.13;34.16
35694;BME280;21812;55.536;37.664;2024-03-02T11:58:03;100982.97;;;14.17;35.24
35694;BME280;21812;55.536;37.664;2024-03-02T12:00:29;101011.53;;;13.48;36.28
35694;BME280;21812;55.536;37.664;2024-03-02T12:03:05;101004.91;;;13.28;37.68
35694;BME280;21812;55.536;37.664;2024-03-02T12:05:31;100994.88;;;12.90;38.06
35694;BME280;21812;55.536;37.664;2024-03-02T12:07:58;100998.94;;;12.78;38.17
35694;BME280;21812;55.536;37.664;2024-03-02T12:10:25;100996.47;;;12.60;39.30
35694;BME280;21812;55.536;37.664;2024-03-02T12:13:05;101000.97;;;13.16;38.58
35694;BME280;21812;55.536;37.664;2024-03-02T12:15:34;100996.66;;;14.22;37.02
35694;BME280;21812;55.536;37.664;2024-03-02T12:18:02;100979.00;;;15.81;33.79
35694;BME280;21812;55.536;37.664;2024-03-02T12:20:30;100978.38;;;17.12;31.68
35694;BME280;21812;55.536;37.664;2024-03-02T12:22:58;100915.31;;;17.53;30.63
35694;BME280;21812;55.536;37.664;2024-03-02T12:25:25;100958.97;;;17.64;30.54
35694;BME280;21812;55.536;37.664;2024-03-02T12:27:54;100948.72;;;16.71;30.83
35694;BME280;21812;55.536;37.664;2024-03-02T12:30:20;100960.47;;;16.21;31.49
35694;BME280;21812;55.536;37.664;2024-03-02T12:32:47;100974.47;;;16.38;31.65
35694;BME280;21812;55.536;37.664;2024-03-02T12:35:14;100980.44;;;16.62;31.62
35694;BME280;21812;55.536;37.664;2024-03-02T12:40:10;100955.31;;;15.55;31.18
35694;BME280;21812;55.536;37.664;2024-03-02T12:42:37;101008.88;;;14.62;32.56
35694;BME280;21812;55.536;37.664;2024-03-02T12:45:03;101011.28;;;13.58;35.16
35694;BME280;21812;55.536;37.664;2024-03-02T12:47:29;101005.28;;;12.85;35.99
35694;BME280;21812;55.536;37.664;2024-03-02T12:49:55;101013.78;;;12.49;37.17
35694;BME280;21812;55.536;37.664;2024-03-02T12:52:22;101014.50;;;12.19;38.21
35694;BME280;21812;55.536;37.664;2024-03-02T12:54:49;101009.47;;;11.83;38.35